Elmwood Park, NJ

5:49 PM EDT on June 02, 2015 (GMT -0400)
Residential | | Change Station
CLOSE
Current Station
Personal Weather Station
Location: Saddle Brook, NJ
Elevation: 59 ft
Nearby Weather Stations

Elev 59 ft 40.91 °N, 74.10 °W | Updated 1 second ago

Rain
Rain
55.6 °F
Feels Like 55.6 °F
N
0.7
Wind Variable Wind from NE
Gusts 5.4 mph

Today
High -- | Low -- °F
--% Chance of Precip.
Yesterday
High -- | Low -- °F
Precip. -- in
5:26 AM 8:22 PM
Full, 100% visible
Pressure 30.12 in
Visibility 9.0 miles
Clouds Mostly Cloudy 900 ft
Overcast 1500 ft
Dew Point 55 °F
Humidity 99%
Rainfall 0.32 in
Snow Depth Not available.
UV 1 out of 12
Pollen .90 out of 12
Air Quality Not available.
Flu Activity Sporadic
SPECI KTEB 022126Z 35005KT 9SM -RA BKN009 OVC015 13/11 A3012 RMK AO2 P0001

More Conditions Fewer Conditions

Pressure 30.12 in
Visibility 9.0 miles
Clouds Mostly Cloudy 900 ft
Overcast 1500 ft
Dew Point 55 °F
Humidity 99%
Rainfall 0.32 in
Snow Depth Not available.
UV 1 out of 12
Pollen .90 out of 12
Air Quality Not available.
Flu Activity Sporadic
SPECI KTEB 022126Z 35005KT 9SM -RA BKN009 OVC015 13/11 A3012 RMK AO2 P0001

More Conditions Fewer Conditions

10-Day Weather Forecast

×

Almanac

Astronomy

Jun. 02, 2015 Rise Set
Actual Time
Civil Twilight
Nautical Twilight
Astronomical Twilight
Moon
Length of Visible Light
Length of Day
Tomorrow will be .
, % of the Moon is Illuminated

Today's Extremes

State Highs State Lows

Community

WunderPhotos

Upload Photos

1,826,032 photos uploaded!

WunderBlogs® & News

Nearby

Air Quality

  Air Quality AQ Index Pollutant
Not available.

Snow Depth

Station Depth Elevation

Earthquake Activity

City Distance Mag. Time & Date
Minimum magnitude displayed is 2.5.

Coastal Water Temperatures

Place Temperature

Stations

Nearby Weather Stations

Station Location Temp. Windchill Dew Point Humidity Wind Precip. Elev Updated Type